In Rescue
 
Open Full Screen Window  High Contrast Mode
Wind Gusting 00 knots
08
May 25, 2022 9:19 PM CDT
Weather Information
Wind Direction
  010 °
Wind Speed
  08 kt (9 mph)
Wind Gust
  00 kt (0 mph)
Altimeter
29.89 in
Visibility
10 SM
Temperature
07° C
45° F
Dewpoint
07° C
45° F
Humidity
100%
1hr Rain Fall
00.00 in.
24hr Rain Fall
00.31 in.
Sky Condition
Overcast @ 800 ft
IFR

METAR K04W 260219Z AUTO 01008KT 10SM OVC008 07/07 A2989 RMK AO2

FAA Disclaimer: The data displayed is for advisory purposes only and is not to be used for flight planning or operations.